Time;durP1;ratioP1;P1;durP2;ratioP2;P2;SDS_P1;SDS_P2;PMS_P1;PMS_P2;Temp;Humidity;BMP_temperature;BMP_pressure;BME280_temperature;BME280_humidity;BME280_pressure;Samples;Min_cycle;Max_cycle;Signal;HPM_P1;HPM_P2
2021/12/21 00:00:13;;;;;;;8.40;4.10;;;;;;;-15.42;84.62;100826.69;5049880;28;20055;-71
2021/12/21 00:02:40;;;;;;;11.75;4.45;;;;;;;-15.42;84.69;100830.16;5050688;28;20080;-71
2021/12/21 00:05:05;;;;;;;12.93;5.68;;;;;;;-15.40;84.69;100837.94;5035901;28;20029;-71
2021/12/21 00:07:31;;;;;;;11.27;5.43;;;;;;;-15.39;84.59;100837.81;5049048;28;20135;-71
2021/12/21 00:09:57;;;;;;;10.30;5.80;;;;;;;-15.40;84.72;100835.31;5047116;28;20527;-71
2021/12/21 00:12:26;;;;;;;14.68;6.80;;;;;;;-15.43;84.50;100841.63;5054052;28;20037;-72
2021/12/21 00:15:02;;;;;;;14.63;6.70;;;;;;;-15.46;84.40;100847.09;5051360;28;20048;-71
2021/12/21 00:20:34;;;;;;;10.98;5.38;;;;;;;-15.56;84.18;100836.41;5048974;28;20048;-72
2021/12/21 00:25:22;;;;;;;9.02;4.68;;;;;;;-15.64;83.95;100840.53;5033326;28;20044;-72
2021/12/21 00:27:51;;;;;;;9.98;4.82;;;;;;;-15.69;83.96;100840.88;5049386;28;20532;-72
2021/12/21 00:30:17;;;;;;;9.73;4.23;;;;;;;-15.71;83.76;100845.41;5037958;28;20032;-72
2021/12/21 00:32:43;;;;;;;9.43;4.28;;;;;;;-15.74;84.13;100845.63;5055888;28;20166;-72
2021/12/21 00:35:09;;;;;;;10.02;4.35;;;;;;;-15.75;83.75;100843.09;5043979;28;20042;-72
2021/12/21 00:37:36;;;;;;;10.30;5.00;;;;;;;-15.77;83.80;100837.97;5060966;28;20040;-72
2021/12/21 00:40:03;;;;;;;7.85;4.53;;;;;;;-15.79;83.80;100844.25;5041530;28;20045;-72
2021/12/21 00:42:29;;;;;;;9.35;5.00;;;;;;;-15.81;83.62;100840.88;5050094;28;20052;-72
2021/12/21 00:44:54;;;;;;;7.57;4.10;;;;;;;-15.83;83.80;100841.00;5057551;28;20049;-71
2021/12/21 00:47:20;;;;;;;7.00;4.20;;;;;;;-15.88;83.91;100841.31;5059871;28;20033;-71
2021/12/21 00:49:47;;;;;;;6.75;4.00;;;;;;;-15.88;83.82;100845.75;5065452;28;20091;-71
2021/12/21 00:52:14;;;;;;;7.55;4.15;;;;;;;-15.90;83.58;100845.03;5041630;28;20076;-71
2021/12/21 00:54:40;;;;;;;8.13;4.38;;;;;;;-15.91;83.70;100846.81;5039880;28;20074;-70
2021/12/21 00:57:05;;;;;;;7.25;3.40;;;;;;;-15.90;83.61;100847.66;5053526;28;20511;-72
2021/12/21 00:59:32;;;;;;;9.80;3.90;;;;;;;-15.88;83.83;100851.00;5048690;28;20076;-71
2021/12/21 01:01:57;;;;;;;4.85;3.28;;;;;;;-15.86;83.75;100849.09;5050276;28;20033;-70
2021/12/21 01:04:29;;;;;;;7.30;3.58;;;;;;;-15.85;83.66;100849.00;5064420;28;20044;-72
2021/12/21 01:07:08;;;;;;;6.90;3.45;;;;;;;-15.84;83.81;100857.72;5054225;28;20033;-70
2021/12/21 01:17:50;;;;;;;5.30;2.92;;;;;;;-15.88;83.71;100845.75;5048286;28;20122;-71
2021/12/21 01:21:05;;;;;;;;;;;;;;;-15.91;83.89;100840.72;5061329;28;20128;-70
2021/12/21 01:28:17;;;;;;;5.82;2.95;;;;;;;-15.97;83.70;100852.47;5038060;28;20052;-70
2021/12/21 01:35:54;;;;;;;5.30;2.92;;;;;;;-16.06;83.85;100853.13;5042230;28;20115;-71
2021/12/21 01:40:57;;;;;;;6.18;2.70;;;;;;;-16.03;83.74;100844.19;5040574;28;20258;-70
2021/12/21 01:43:38;;;;;;;5.90;2.85;;;;;;;-16.04;83.70;100843.34;5038315;28;20042;-70
2021/12/21 01:51:33;;;;;;;6.18;3.13;;;;;;;-15.99;83.98;100850.91;5054104;28;20095;-71
2021/12/21 01:53:58;;;;;;;5.05;3.38;;;;;;;-15.97;83.87;100851.63;5037084;28;20037;-71
2021/12/21 01:56:24;;;;;;;5.95;3.30;;;;;;;-15.97;83.85;100852.47;5054185;28;20036;-71
2021/12/21 01:58:51;;;;;;;5.97;3.55;;;;;;;-15.95;83.98;100849.75;5062370;28;20412;-71
2021/12/21 02:01:20;;;;;;;6.88;3.03;;;;;;;-15.94;83.96;100857.53;5055795;28;20033;-71
2021/12/21 02:03:49;;;;;;;7.20;3.38;;;;;;;-15.93;83.84;100850.50;5067194;28;20032;-71
2021/12/21 02:06:18;;;;;;;8.95;3.72;;;;;;;-15.95;83.83;100855.03;5064311;28;20033;-71
2021/12/21 02:08:44;;;;;;;8.00;3.65;;;;;;;-16.01;83.91;100855.41;5052159;28;20044;-71
2021/12/21 02:11:10;;;;;;;7.72;3.55;;;;;;;-16.04;83.97;100855.63;5062338;28;20195;-71
2021/12/21 02:13:37;;;;;;;6.55;3.20;;;;;;;-16.10;84.04;100850.81;5053437;28;20123;-71
2021/12/21 02:16:04;;;;;;;10.38;3.97;;;;;;;-16.12;83.96;100852.72;5048446;28;20052;-70
2021/12/21 02:18:49;;;;;;;5.85;3.13;;;;;;;-16.17;83.97;100851.22;5043951;28;20037;-71
2021/12/21 02:21:26;;;;;;;5.95;3.17;;;;;;;-16.16;83.79;100857.31;5050011;28;20045;-70
2021/12/21 02:23:55;;;;;;;6.78;3.50;;;;;;;-16.13;83.97;100859.75;5051293;28;20033;-70
2021/12/21 02:31:35;;;;;;;7.40;3.97;;;;;;;-16.04;84.15;100861.75;5025265;28;20052;-71
2021/12/21 02:34:01;;;;;;;7.40;3.90;;;;;;;-16.02;84.10;100870.34;5029011;28;20040;-70
2021/12/21 02:36:26;;;;;;;6.97;4.22;;;;;;;-16.02;84.31;100878.22;5049898;28;20044;-71
2021/12/21 02:38:52;;;;;;;6.57;3.67;;;;;;;-16.00;84.31;100878.97;5059611;28;20044;-71
2021/12/21 02:41:17;;;;;;;7.07;4.13;;;;;;;-15.94;84.39;100880.34;5047700;28;20124;-71
2021/12/21 02:43:43;;;;;;;8.73;3.72;;;;;;;-15.92;84.27;100881.09;5067036;28;20043;-71
2021/12/21 02:46:09;;;;;;;6.55;3.53;;;;;;;-15.88;84.40;100872.03;5061537;28;20063;-71
2021/12/21 02:48:34;;;;;;;5.25;3.10;;;;;;;-15.82;84.34;100868.97;5065843;28;20041;-71
2021/12/21 02:51:01;;;;;;;6.13;3.17;;;;;;;-15.77;84.66;100885.28;5046818;28;20037;-71
2021/12/21 02:53:27;;;;;;;5.00;2.95;;;;;;;-15.73;84.52;100878.84;5035697;28;20476;-71
2021/12/21 02:55:52;;;;;;;7.53;2.88;;;;;;;-15.72;85.09;100883.16;5057095;28;20128;-71
2021/12/21 02:58:18;;;;;;;8.65;3.25;;;;;;;-15.67;84.68;100890.72;5064749;28;20113;-71
2021/12/21 03:00:44;;;;;;;4.97;3.28;;;;;;;-15.66;84.76;100887.97;5038583;28;20041;-71
2021/12/21 03:03:13;;;;;;;3.28;2.65;;;;;;;-15.64;84.83;100896.59;5035300;28;20043;-71
2021/12/21 03:05:44;;;;;;;;;;;;;;;-15.59;84.76;100885.78;5042046;28;20052;-71
2021/12/21 03:08:15;;;;;;;7.20;3.70;;;;;;;-15.59;84.94;100888.41;5057997;28;19924;-71
2021/12/21 03:10:57;;;;;;;7.28;3.30;;;;;;;-15.58;84.77;100897.94;5059455;28;20048;-70
2021/12/21 03:16:07;;;;;;;8.25;3.45;;;;;;;-15.51;84.43;100891.31;5051058;28;20040;-70
2021/12/21 03:18:33;;;;;;;4.93;2.88;;;;;;;-15.49;84.61;100896.44;5039700;28;20045;-72
2021/12/21 03:20:59;;;;;;;7.55;3.35;;;;;;;-15.48;84.73;100895.50;5054126;28;20040;-70
2021/12/21 03:23:24;;;;;;;5.38;3.08;;;;;;;-15.46;84.71;100904.13;5061869;28;20118;-72
2021/12/21 03:25:50;;;;;;;5.22;2.67;;;;;;;-15.43;84.69;100901.28;5040998;28;20399;-71
2021/12/21 03:28:15;;;;;;;4.95;2.60;;;;;;;-15.49;84.50;100893.81;5058597;28;20039;-70
2021/12/21 03:30:41;;;;;;;5.53;3.03;;;;;;;-15.45;84.56;100898.75;5047663;28;20076;-71
2021/12/21 03:33:06;;;;;;;6.35;3.22;;;;;;;-15.42;84.52;100897.72;5044478;28;20032;-71
2021/12/21 03:35:32;;;;;;;5.60;3.30;;;;;;;-15.43;84.37;100893.41;5055162;28;20076;-70
2021/12/21 03:37:58;;;;;;;5.05;3.05;;;;;;;-15.45;84.63;100895.28;5062683;28;20032;-71
2021/12/21 03:40:23;;;;;;;5.90;3.05;;;;;;;-15.45;84.43;100903.16;5059252;28;20050;-70
2021/12/21 03:42:49;;;;;;;3.85;2.50;;;;;;;-15.46;84.47;100897.06;5056234;28;20040;-71
2021/12/21 03:45:14;;;;;;;4.88;2.85;;;;;;;-15.39;84.58;100900.13;5021061;28;20157;-70
2021/12/21 03:47:40;;;;;;;4.57;2.90;;;;;;;-15.41;84.61;100902.03;5043190;28;20325;-71
2021/12/21 03:50:13;;;;;;;4.75;2.55;;;;;;;-15.37;84.51;100916.63;5054153;28;20047;-72
2021/12/21 03:52:39;;;;;;;2.42;1.80;;;;;;;-15.36;84.43;100918.31;5055268;28;20071;-72
2021/12/21 03:55:05;;;;;;;3.30;2.20;;;;;;;-15.35;84.47;100912.94;5065195;28;20052;-72
2021/12/21 03:57:30;;;;;;;3.33;2.22;;;;;;;-15.30;84.45;100915.25;5049462;28;20044;-72
2021/12/21 03:59:57;;;;;;;4.05;2.33;;;;;;;-15.28;84.63;100919.44;5065034;28;20046;-72
2021/12/21 04:02:25;;;;;;;4.25;3.13;;;;;;;-15.29;84.14;100923.03;5060980;28;20045;-72
2021/12/21 04:04:52;;;;;;;4.55;2.63;;;;;;;-15.35;84.56;100923.47;5064447;28;20064;-71
2021/12/21 04:07:18;;;;;;;4.55;2.45;;;;;;;-15.38;84.29;100920.22;5037172;28;20037;-72
2021/12/21 04:09:44;;;;;;;4.57;1.95;;;;;;;-15.42;84.56;100926.66;5066388;28;20102;-72
2021/12/21 04:12:10;;;;;;;6.13;1.85;;;;;;;-15.45;84.38;100927.69;5058751;28;20045;-72
2021/12/21 04:14:36;;;;;;;4.60;1.85;;;;;;;-15.48;84.34;100930.53;5051515;28;20648;-72
2021/12/21 04:17:03;;;;;;;5.70;2.40;;;;;;;-15.51;84.35;100927.28;5061021;28;20055;-72
2021/12/21 04:19:28;;;;;;;2.95;1.85;;;;;;;-15.54;84.60;100938.88;5050866;28;20045;-72
2021/12/21 04:21:54;;;;;;;8.32;2.42;;;;;;;-15.56;84.32;100936.34;5056383;28;20067;-72
2021/12/21 04:24:19;;;;;;;3.22;1.77;;;;;;;-15.58;84.47;100938.25;5061507;28;20042;-73
2021/12/21 04:26:45;;;;;;;4.22;2.42;;;;;;;-15.62;84.27;100941.19;5042244;28;20056;-73
2021/12/21 04:29:11;;;;;;;5.45;2.50;;;;;;;-15.62;84.28;100939.44;5038485;28;20124;-73
2021/12/21 04:31:37;;;;;;;5.47;2.35;;;;;;;-15.64;84.16;100933.41;5050156;28;20040;-73
2021/12/21 04:34:02;;;;;;;6.25;3.20;;;;;;;-15.67;84.22;100936.25;5063083;28;20040;-73
2021/12/21 04:36:29;;;;;;;4.97;3.08;;;;;;;-15.68;84.05;100934.59;5050348;28;20407;-73
2021/12/21 04:38:57;;;;;;;4.03;2.40;;;;;;;-15.68;84.06;100942.47;5058541;28;20136;-73
2021/12/21 04:41:26;;;;;;;2.95;2.28;;;;;;;-15.65;84.30;100939.63;5041111;28;20073;-73
2021/12/21 04:43:53;;;;;;;6.40;2.78;;;;;;;-15.65;84.29;100937.00;5065755;28;20060;-73
2021/12/21 04:46:19;;;;;;;2.47;1.80;;;;;;;-15.65;84.18;100938.78;5059546;28;20502;-73
2021/12/21 04:48:45;;;;;;;2.17;1.98;;;;;;;-15.57;84.33;100937.28;5056269;28;20047;-73
2021/12/21 04:51:10;;;;;;;2.38;1.75;;;;;;;-15.48;84.58;100942.84;5051445;28;20033;-73
2021/12/21 04:53:36;;;;;;;4.60;1.55;;;;;;;-15.42;84.69;100942.44;5065159;28;20040;-73
2021/12/21 04:56:02;;;;;;;3.33;1.67;;;;;;;-15.39;84.68;100958.00;5057081;28;20032;-73
2021/12/21 04:58:29;;;;;;;3.05;1.40;;;;;;;-15.40;84.61;100946.63;5050201;28;20041;-73
2021/12/21 05:00:54;;;;;;;2.97;1.90;;;;;;;-15.40;84.75;100951.91;5038138;28;20415;-73
2021/12/21 05:03:20;;;;;;;3.03;2.05;;;;;;;-15.33;84.60;100949.66;5054585;28;20036;-73
2021/12/21 05:05:46;;;;;;;1.95;1.40;;;;;;;-15.29;84.70;100956.38;5046495;28;20143;-73
2021/12/21 05:08:24;;;;;;;0.90;0.90;;;;;;;-15.14;84.73;100946.56;5057656;28;20033;-73
2021/12/21 05:10:53;;;;;;;3.08;1.25;;;;;;;-15.05;84.62;100952.03;5056328;28;20049;-73
2021/12/21 05:13:27;;;;;;;0.88;0.88;;;;;;;-15.02;84.69;100945.72;5066910;28;20538;-72
2021/12/21 05:15:53;;;;;;;1.05;0.40;;;;;;;-14.98;84.73;100941.91;5034372;28;20045;-72
2021/12/21 05:18:19;;;;;;;2.30;1.20;;;;;;;-14.94;84.87;100944.19;5058348;28;20114;-72
2021/12/21 05:20:45;;;;;;;1.63;0.88;;;;;;;-14.94;84.71;100944.19;5039793;28;20052;-73
2021/12/21 05:23:11;;;;;;;2.88;1.48;;;;;;;-14.93;84.85;100937.97;5053995;28;20095;-73
2021/12/21 05:25:38;;;;;;;2.30;1.70;;;;;;;-14.92;84.88;100938.84;5067339;28;20033;-72
2021/12/21 05:28:05;;;;;;;5.18;2.00;;;;;;;-14.94;84.71;100936.28;5059881;28;20041;-73
2021/12/21 05:30:31;;;;;;;4.15;1.73;;;;;;;-15.01;84.50;100942.97;5048663;28;20037;-73
2021/12/21 05:32:56;;;;;;;2.47;2.22;;;;;;;-15.10;84.53;100954.13;5062915;28;20528;-73
2021/12/21 05:35:23;;;;;;;6.07;2.67;;;;;;;-15.17;84.49;100963.44;5055611;28;20041;-72
2021/12/21 05:37:52;;;;;;;3.67;2.35;;;;;;;-15.27;84.34;100962.38;5050711;28;20037;-73
2021/12/21 05:40:19;;;;;;;5.45;2.55;;;;;;;-15.38;84.19;100954.41;5020277;28;20044;-74
2021/12/21 05:42:46;;;;;;;6.63;2.80;;;;;;;-15.50;83.94;100966.63;5058385;28;20923;-73
2021/12/21 05:45:15;;;;;;;4.88;3.08;;;;;;;-15.61;83.74;100964.78;5039977;28;20029;-78
2021/12/21 05:47:41;;;;;;;3.55;2.88;;;;;;;-15.70;83.75;100970.66;5032895;28;20052;-75
2021/12/21 05:50:11;;;;;;;5.00;2.40;;;;;;;-15.77;83.71;100969.41;5060351;28;20435;-74
2021/12/21 05:52:36;;;;;;;3.53;1.95;;;;;;;-15.83;83.71;100969.81;5061341;28;20095;-74
2021/12/21 05:55:04;;;;;;;4.30;2.67;;;;;;;-15.86;83.82;100970.03;5050491;28;20044;-75
2021/12/21 05:57:30;;;;;;;4.47;2.63;;;;;;;-15.88;83.89;100977.19;5056778;28;20568;-74
2021/12/21 05:59:55;;;;;;;4.80;2.17;;;;;;;-15.92;83.89;100979.19;5067751;28;20040;-74
2021/12/21 06:02:21;;;;;;;3.80;1.88;;;;;;;-15.92;83.81;100986.22;5062661;28;20071;-74
2021/12/21 06:04:46;;;;;;;5.03;1.55;;;;;;;-15.93;83.67;100974.88;5060586;28;20032;-74
2021/12/21 06:07:12;;;;;;;3.88;2.28;;;;;;;-15.90;83.78;100973.81;5069598;28;20501;-74
2021/12/21 06:09:39;;;;;;;2.95;1.90;;;;;;;-15.89;83.92;100978.13;5051004;28;20067;-74
2021/12/21 06:26:10;;;;;;;3.28;1.98;;;;;;;-15.83;83.98;100987.38;5075584;28;20089;-74
2021/12/21 06:28:37;;;;;;;5.80;1.73;;;;;;;-15.77;84.13;100985.19;5061612;28;20041;-74
2021/12/21 06:31:03;;;;;;;2.58;1.70;;;;;;;-15.73;84.12;100997.19;5066724;28;20094;-74
2021/12/21 06:33:29;;;;;;;5.68;2.20;;;;;;;-15.68;84.12;100989.81;5055304;28;20049;-75
2021/12/21 06:35:54;;;;;;;2.85;2.13;;;;;;;-15.63;84.13;100997.38;5066218;28;20047;-74
2021/12/21 06:38:20;;;;;;;7.47;2.42;;;;;;;-15.62;84.34;100988.53;5049496;28;20116;-74
2021/12/21 06:40:47;;;;;;;5.72;3.33;;;;;;;-15.64;84.45;101001.78;5056775;28;20075;-74
2021/12/21 06:43:15;;;;;;;4.07;3.33;;;;;;;-15.64;84.44;101003.56;5055306;28;20494;-74
2021/12/21 06:53:42;;;;;;;3.97;2.83;;;;;;;-15.64;84.00;101014.94;5055538;28;20047;-74
2021/12/21 06:56:08;;;;;;;7.25;2.53;;;;;;;-15.62;84.22;101013.06;5064260;28;20037;-74
2021/12/21 06:58:34;;;;;;;6.60;2.57;;;;;;;-15.60;84.43;101015.59;5028987;28;20484;-74
2021/12/21 07:01:00;;;;;;;4.15;2.95;;;;;;;-15.58;84.44;101014.50;5040074;28;20077;-74
2021/12/21 07:03:26;;;;;;;7.30;2.78;;;;;;;-15.58;84.40;101016.28;5067604;28;20047;-74
2021/12/21 07:05:51;;;;;;;9.27;2.85;;;;;;;-15.57;84.33;101026.72;5057102;28;20032;-74
2021/12/21 07:08:24;;;;;;;5.70;2.97;;;;;;;-15.54;84.32;101017.75;5063403;28;20047;-74
2021/12/21 07:10:55;;;;;;;4.93;3.55;;;;;;;-15.51;84.53;101021.97;5063971;28;20051;-74
2021/12/21 07:18:57;;;;;;;3.95;2.35;;;;;;;-15.46;84.65;101025.97;5064578;28;20052;-74
2021/12/21 07:21:23;;;;;;;7.97;3.28;;;;;;;-15.42;84.81;101016.09;5068587;28;20131;-74
2021/12/21 07:23:50;;;;;;;9.52;3.28;;;;;;;-15.35;84.71;101027.88;5044763;28;20034;-73
2021/12/21 07:26:16;;;;;;;10.38;4.35;;;;;;;-15.29;84.76;101024.81;5047560;28;20533;-74
2021/12/21 07:28:41;;;;;;;6.03;3.55;;;;;;;-15.19;84.99;101022.38;5052814;28;20037;-74
2021/12/21 07:31:07;;;;;;;8.40;3.63;;;;;;;-15.15;84.77;101024.69;5035959;28;20064;-74
2021/12/21 07:33:34;;;;;;;8.68;4.45;;;;;;;-15.11;84.86;101028.78;5066151;28;20518;-74
2021/12/21 07:35:59;;;;;;;11.45;5.18;;;;;;;-15.07;84.89;101027.63;5057895;28;20032;-74
2021/12/21 07:38:26;;;;;;;9.43;4.40;;;;;;;-15.00;85.01;101033.31;5061972;28;20043;-74
2021/12/21 07:40:52;;;;;;;6.85;3.67;;;;;;;-14.97;84.86;101041.81;5064585;28;20139;-74
2021/12/21 07:43:17;;;;;;;6.00;4.07;;;;;;;-14.91;85.00;101050.25;5037054;28;20045;-74
2021/12/21 07:45:43;;;;;;;8.95;4.70;;;;;;;-14.88;84.88;101042.16;5067404;28;20060;-74
2021/12/21 07:48:09;;;;;;;7.53;3.95;;;;;;;-14.86;84.95;101040.25;5058635;28;20066;-74
2021/12/21 07:50:35;;;;;;;4.38;2.72;;;;;;;-14.83;85.00;101043.50;5060228;28;20126;-74
2021/12/21 07:53:01;;;;;;;9.43;4.57;;;;;;;-14.79;85.07;101049.38;5066006;28;20418;-74
2021/12/21 07:55:27;;;;;;;6.35;4.43;;;;;;;-14.78;85.03;101041.38;5053409;28;20036;-74
2021/12/21 07:57:52;;;;;;;9.57;3.90;;;;;;;-14.71;84.83;101041.78;5066128;28;20040;-74
2021/12/21 08:00:21;;;;;;;7.15;4.57;;;;;;;-14.66;85.15;101032.59;5053583;28;20036;-74
2021/12/21 08:02:47;;;;;;;9.05;5.03;;;;;;;-14.58;84.91;101032.03;5056622;28;20090;-74
2021/12/21 08:05:13;;;;;;;7.20;4.15;;;;;;;-14.53;84.91;101039.63;5053645;28;20044;-74
2021/12/21 08:07:47;;;;;;;10.30;4.97;;;;;;;-14.50;84.87;101034.13;5067611;28;20044;-74
2021/12/21 08:10:29;;;;;;;9.15;4.50;;;;;;;-14.47;85.09;101042.66;5046267;28;20580;-74
2021/12/21 08:12:55;;;;;;;8.57;4.63;;;;;;;-14.44;84.81;101050.31;5057157;28;20106;-74
2021/12/21 08:15:23;;;;;;;5.80;3.55;;;;;;;-14.46;84.99;101038.22;5069481;28;20049;-74
2021/12/21 08:17:48;;;;;;;11.60;4.18;;;;;;;-14.46;84.94;101046.13;5054326;28;20032;-74
2021/12/21 08:20:14;;;;;;;4.65;3.58;;;;;;;-14.39;84.86;101044.72;5062773;28;20471;-74
2021/12/21 08:22:40;;;;;;;6.50;3.17;;;;;;;-14.33;84.99;101049.53;5062675;28;20040;-74
2021/12/21 08:25:06;;;;;;;7.68;4.18;;;;;;;-14.28;84.95;101055.28;5037649;28;20044;-74
2021/12/21 08:27:32;;;;;;;10.45;3.30;;;;;;;-14.21;85.00;101048.66;5067474;28;20044;-74
2021/12/21 08:29:58;;;;;;;6.45;4.10;;;;;;;-14.13;85.16;101051.53;5054223;28;20070;-74
2021/12/21 08:32:23;;;;;;;7.03;3.83;;;;;;;-14.03;84.91;101057.00;5059944;28;20091;-74
2021/12/21 08:34:49;;;;;;;8.50;3.72;;;;;;;-13.94;84.92;101045.75;5063654;28;20036;-74
2021/12/21 08:37:14;;;;;;;2.95;2.58;;;;;;;-13.89;84.80;101056.78;5053014;28;20125;-74
2021/12/21 08:39:41;;;;;;;4.55;2.22;;;;;;;-13.84;84.59;101057.31;5036220;28;20040;-74
2021/12/21 08:42:12;;;;;;;8.95;3.00;;;;;;;-13.81;84.50;101062.34;5063842;28;20048;-74
2021/12/21 08:44:39;;;;;;;5.70;3.33;;;;;;;-13.78;84.46;101064.75;5044524;28;20091;-75
2021/12/21 08:47:05;;;;;;;6.30;3.40;;;;;;;-13.73;84.70;101069.69;5045123;28;20095;-74
2021/12/21 08:49:30;;;;;;;7.38;3.35;;;;;;;-13.65;84.65;101069.97;5040204;28;20450;-74
2021/12/21 08:51:56;;;;;;;5.50;3.90;;;;;;;-13.59;84.87;101073.94;5064543;28;20124;-74
2021/12/21 08:54:22;;;;;;;10.45;3.40;;;;;;;-13.59;84.62;101058.94;5058598;28;20036;-74
2021/12/21 08:56:48;;;;;;;12.68;3.20;;;;;;;-13.61;84.79;101065.28;5056204;28;20033;-74
2021/12/21 08:59:16;;;;;;;5.43;2.25;;;;;;;-13.68;84.68;101061.44;5066828;28;20050;-74
2021/12/21 09:01:45;;;;;;;3.63;2.63;;;;;;;-13.71;84.54;101066.00;5039399;28;20032;-74
2021/12/21 09:04:11;;;;;;;4.25;3.00;;;;;;;-13.75;84.64;101067.16;5064171;28;20079;-73
2021/12/21 09:06:37;;;;;;;2.03;1.80;;;;;;;-13.80;84.29;101074.59;5057199;28;20068;-72
2021/12/21 09:09:03;;;;;;;3.83;3.20;;;;;;;-13.84;84.47;101069.66;5058339;28;20441;-73
2021/12/21 09:11:29;;;;;;;4.43;2.35;;;;;;;-13.90;84.45;101083.28;5071016;28;20047;-73
2021/12/21 09:13:55;;;;;;;5.68;3.53;;;;;;;-13.94;84.46;101082.66;5058648;28;20494;-73
2021/12/21 09:16:20;;;;;;;5.53;3.50;;;;;;;-13.98;84.12;101078.59;5065324;28;20064;-73
2021/12/21 09:18:46;;;;;;;8.50;4.03;;;;;;;-14.05;84.23;101072.09;5065796;28;20098;-72
2021/12/21 09:21:12;;;;;;;12.73;3.47;;;;;;;-14.11;84.03;101076.00;5058179;28;20043;-72
2021/12/21 09:23:39;;;;;;;4.22;3.20;;;;;;;-14.14;84.09;101068.31;5062969;28;20033;-73
2021/12/21 09:26:05;;;;;;;5.80;2.67;;;;;;;-14.18;84.08;101076.56;5051922;28;20062;-73
2021/12/21 09:28:31;;;;;;;6.25;3.30;;;;;;;-14.22;83.90;101083.03;5032947;28;20063;-73
2021/12/21 09:30:56;;;;;;;3.85;3.05;;;;;;;-14.28;83.85;101072.91;5028622;28;20115;-74
2021/12/21 09:33:22;;;;;;;6.75;2.90;;;;;;;-14.34;83.81;101077.69;5068538;28;20044;-75
2021/12/21 09:35:49;;;;;;;5.55;3.15;;;;;;;-14.38;83.69;101078.84;5043734;28;20033;-73
2021/12/21 09:38:14;;;;;;;2.38;2.20;;;;;;;-14.45;83.51;101072.34;5049474;28;20415;-74
2021/12/21 09:40:40;;;;;;;8.70;3.90;;;;;;;-14.51;83.22;101088.63;5061108;28;20521;-74
2021/12/21 09:43:10;;;;;;;5.32;3.30;;;;;;;-14.52;83.32;101088.72;5034807;28;20038;-73
2021/12/21 09:45:37;;;;;;;19.85;3.13;;;;;;;-14.59;83.33;101083.03;5053168;28;20519;-73
2021/12/21 09:48:03;;;;;;;3.28;2.60;;;;;;;-14.63;83.20;101087.69;5064442;28;20044;-73
2021/12/21 09:50:29;;;;;;;6.07;2.65;;;;;;;-14.65;83.40;101083.47;5062280;28;20123;-73
2021/12/21 09:52:56;;;;;;;3.40;2.20;;;;;;;-14.64;83.36;101087.81;5046424;28;20034;-73
2021/12/21 09:55:22;;;;;;;4.80;2.53;;;;;;;-14.65;83.17;101091.38;5067701;28;20044;-73
2021/12/21 09:57:49;;;;;;;7.45;3.63;;;;;;;-14.66;83.15;101079.16;5058142;28;20028;-73
2021/12/21 10:00:32;;;;;;;4.63;2.25;;;;;;;-14.63;83.31;101092.97;5064034;28;20102;-73
2021/12/21 10:03:03;;;;;;;3.05;2.28;;;;;;;-14.64;83.17;101095.69;5066306;28;20068;-74
2021/12/21 10:05:32;;;;;;;3.78;2.00;;;;;;;-14.62;83.07;101102.53;5070219;28;20036;-73
2021/12/21 10:08:16;;;;;;;3.08;1.90;;;;;;;-14.60;83.17;101094.53;5059155;28;20544;-73
2021/12/21 10:10:47;;;;;;;6.47;2.20;;;;;;;-14.54;83.10;101098.53;5060929;28;20087;-74
2021/12/21 10:13:21;;;;;;;4.30;2.13;;;;;;;-14.54;83.02;101102.00;5035144;28;20471;-73
2021/12/21 10:15:52;;;;;;;3.03;1.80;;;;;;;-14.55;82.93;101102.97;5039712;28;20080;-73
2021/12/21 10:18:32;;;;;;;5.30;1.95;;;;;;;-14.54;83.10;101090.63;5055897;28;20037;-73
2021/12/21 10:21:01;;;;;;;2.97;1.60;;;;;;;-14.53;83.25;101095.78;5059571;28;20526;-73
2021/12/21 10:23:28;;;;;;;6.03;1.92;;;;;;;-14.51;83.27;101093.03;5050119;28;20567;-73
2021/12/21 10:26:00;;;;;;;7.25;3.28;;;;;;;-14.49;83.22;101094.63;5056909;28;20036;-73
2021/12/21 10:28:36;;;;;;;4.30;2.58;;;;;;;-14.45;83.12;101093.44;5062144;28;20563;-73
2021/12/21 10:31:09;;;;;;;5.03;3.00;;;;;;;-14.43;83.41;101094.13;5066698;28;20048;-74
2021/12/21 10:33:36;;;;;;;5.95;2.95;;;;;;;-14.32;83.35;101078.41;5056359;28;20760;-73
2021/12/21 10:36:06;;;;;;;3.92;3.05;;;;;;;-14.21;83.62;101079.44;5066449;28;20076;-74
2021/12/21 10:38:33;;;;;;;3.50;1.98;;;;;;;-14.15;83.37;101069.28;5046056;28;20036;-73
2021/12/21 10:41:16;;;;;;;4.93;3.38;;;;;;;-14.02;83.30;101077.13;5057111;28;20076;-73
2021/12/21 10:43:42;;;;;;;3.72;2.10;;;;;;;-13.89;83.56;101080.53;5022768;28;20070;-74
2021/12/21 10:46:08;;;;;;;6.25;3.55;;;;;;;-13.80;83.97;101071.94;5064691;28;20045;-74
2021/12/21 10:48:36;;;;;;;4.88;3.22;;;;;;;-13.74;83.99;101081.19;5064084;28;20040;-73
2021/12/21 10:51:04;;;;;;;4.22;2.35;;;;;;;-13.74;83.54;101078.56;5057899;28;20522;-73
2021/12/21 10:53:31;;;;;;;5.68;2.35;;;;;;;-13.69;83.81;101075.59;5068145;28;20607;-73
2021/12/21 10:56:04;;;;;;;5.00;2.70;;;;;;;-13.65;83.92;101069.97;5058384;28;20074;-74
2021/12/21 10:58:30;;;;;;;7.00;2.85;;;;;;;-13.60;83.74;101074.88;5044821;28;20070;-74
2021/12/21 11:01:01;;;;;;;3.75;2.33;;;;;;;-13.57;83.65;101069.38;5065296;28;20044;-74
2021/12/21 11:03:50;;;;;;;5.53;2.45;;;;;;;-13.53;83.88;101076.13;5054620;28;20037;-74
2021/12/21 11:06:27;;;;;;;8.45;3.15;;;;;;;-13.50;83.89;101081.16;5064244;28;20574;-74
2021/12/21 11:08:55;;;;;;;4.90;2.92;;;;;;;-13.49;83.79;101083.69;5064487;28;20047;-74
2021/12/21 11:11:28;;;;;;;7.20;2.78;;;;;;;-13.49;83.83;101075.78;5054467;28;20045;-74
2021/12/21 11:14:02;;;;;;;8.63;2.85;;;;;;;-13.47;83.83;101080.94;5065500;28;20028;-74
2021/12/21 11:16:35;;;;;;;5.25;2.30;;;;;;;-13.45;83.66;101079.00;5060760;28;20041;-74
2021/12/21 11:19:01;;;;;;;5.15;2.65;;;;;;;-13.46;83.56;101079.97;5048788;28;20094;-74
2021/12/21 11:21:28;;;;;;;4.45;2.75;;;;;;;-13.46;83.63;101085.25;5037783;28;20033;-74
2021/12/21 11:23:54;;;;;;;5.90;3.22;;;;;;;-13.45;83.66;101086.94;5048058;28;20037;-74
2021/12/21 11:26:20;;;;;;;8.07;4.00;;;;;;;-13.47;83.62;101087.03;5058775;28;20036;-74
2021/12/21 11:28:49;;;;;;;4.15;2.75;;;;;;;-13.46;83.58;101087.88;5059416;28;20387;-74
2021/12/21 11:31:17;;;;;;;4.50;2.42;;;;;;;-13.48;83.48;101090.66;5054194;28;20037;-74
2021/12/21 11:33:44;;;;;;;4.30;2.63;;;;;;;-13.49;83.59;101078.41;5038615;28;20123;-74
2021/12/21 11:38:57;;;;;;;4.75;2.22;;;;;;;-13.48;83.91;101084.53;5058471;28;20037;-74
2021/12/21 11:41:23;;;;;;;3.60;2.65;;;;;;;-13.44;83.81;101088.59;5065537;28;20089;-74
2021/12/21 11:43:58;;;;;;;8.68;3.30;;;;;;;-13.43;83.70;101095.56;5050678;28;20029;-74
2021/12/21 11:46:31;;;;;;;7.00;2.65;;;;;;;-13.43;83.98;101085.00;5050417;28;20131;-74
2021/12/21 11:49:11;;;;;;;9.25;3.28;;;;;;;-13.43;84.11;101091.13;5053088;28;20028;-74
2021/12/21 11:51:37;;;;;;;7.15;3.33;;;;;;;-13.46;84.25;101085.25;5049780;28;20048;-72
2021/12/21 11:54:14;;;;;;;4.07;3.20;;;;;;;-13.48;84.25;101085.38;5058202;28;20064;-72
2021/12/21 11:56:40;;;;;;;4.70;3.08;;;;;;;-13.53;84.08;101092.81;5052490;28;20128;-72
2021/12/21 11:59:05;;;;;;;9.60;3.45;;;;;;;-13.52;84.13;101083.91;5061825;28;20128;-72
2021/12/21 12:01:31;;;;;;;5.45;2.70;;;;;;;-13.53;84.11;101087.53;5054663;28;20044;-72
2021/12/21 12:04:00;;;;;;;5.43;3.10;;;;;;;-13.54;84.12;101087.59;5063848;28;20041;-72
2021/12/21 12:06:28;;;;;;;3.38;2.70;;;;;;;-13.56;84.27;101094.81;5061149;28;20051;-72
2021/12/21 12:09:03;;;;;;;4.90;2.85;;;;;;;-13.59;84.27;101097.66;5057395;28;20104;-72
2021/12/21 12:11:37;;;;;;;5.50;2.75;;;;;;;-13.61;84.22;101100.44;5061924;28;20149;-72
2021/12/21 12:14:06;;;;;;;4.75;3.05;;;;;;;-13.64;84.26;101100.66;5013014;28;20510;-72
2021/12/21 12:16:56;;;;;;;4.25;2.92;;;;;;;-13.72;84.11;101093.31;5047697;28;20049;-72
2021/12/21 12:19:33;;;;;;;3.17;2.15;;;;;;;-13.77;84.27;101099.88;5038490;28;20049;-73
2021/12/21 12:22:01;;;;;;;4.10;2.65;;;;;;;-13.80;84.03;101102.75;5038769;28;20541;-73
2021/12/21 12:24:34;;;;;;;4.17;2.13;;;;;;;-13.83;84.12;101109.09;5055902;28;20398;-73
2021/12/21 12:27:03;;;;;;;3.22;2.15;;;;;;;-13.88;84.02;101116.53;5058472;28;20298;-73
2021/12/21 12:29:28;;;;;;;6.32;1.88;;;;;;;-13.90;83.81;101121.03;5050411;28;20080;-73